Sperling, Canada
Current Conditions -  °F | °C
As of 1:00 AM on Monday 24 Nov 2014 (Local Time) from CYWG Reporting Station
Light Snow Light Snow  
Wind Chill: -12°   Ceiling: 2000
Heat Index:   Visibility: 12mi
Dew Point:   Wind: 23mph
Humidity: 79%   Direction: 360°N
Pressure: 29.68"   Gusts: NA
Location:  49.52°N, 97.7°W
Report Text: CYWG 240700Z 36020KT 12SM -SN OVC020 M13/M16 A2968 RMK SC8 SLP067
Loading
Personal Weather Stations






























Interactive Weather Map New forecast layout! Learn more

10-Day Weather Forecast

Advertisements
Track Severe Weather on mobile